sensor_id;sensor_type;location;lat;lon;timestamp;pressure;altitude;pressure_sealevel;temperature;humidity
23261;BME280;11799;47.740;-3.390;2023-01-27T00:00:51;102742.44;;;4.56;83.97
23261;BME280;11799;47.740;-3.390;2023-01-27T00:03:17;102750.31;;;4.56;83.93
23261;BME280;11799;47.740;-3.390;2023-01-27T00:05:44;102738.97;;;4.56;84.18
23261;BME280;11799;47.740;-3.390;2023-01-27T00:08:09;102743.34;;;4.55;84.41
23261;BME280;11799;47.740;-3.390;2023-01-27T00:10:35;102745.94;;;4.57;84.52
23261;BME280;11799;47.740;-3.390;2023-01-27T00:13:01;102751.16;;;4.57;84.24
23261;BME280;11799;47.740;-3.390;2023-01-27T00:15:45;102747.69;;;4.56;84.21
23261;BME280;11799;47.740;-3.390;2023-01-27T00:18:11;102747.69;;;4.56;84.38
23261;BME280;11799;47.740;-3.390;2023-01-27T00:20:36;102747.69;;;4.56;84.39
23261;BME280;11799;47.740;-3.390;2023-01-27T00:23:23;102743.34;;;4.55;84.20
23261;BME280;11799;47.740;-3.390;2023-01-27T00:26:10;102744.13;;;4.59;84.70
23261;BME280;11799;47.740;-3.390;2023-01-27T00:28:38;102744.19;;;4.56;84.46
23261;BME280;11799;47.740;-3.390;2023-01-27T00:31:08;102754.66;;;4.56;84.28
23261;BME280;11799;47.740;-3.390;2023-01-27T00:33:53;102746.00;;;4.54;84.84
23261;BME280;11799;47.740;-3.390;2023-01-27T00:36:21;102751.19;;;4.55;84.74
23261;BME280;11799;47.740;-3.390;2023-01-27T00:38:47;102746.00;;;4.54;84.65
23261;BME280;11799;47.740;-3.390;2023-01-27T00:41:13;102749.44;;;4.56;84.76
23261;BME280;11799;47.740;-3.390;2023-01-27T00:43:47;102751.16;;;4.57;84.98
23261;BME280;11799;47.740;-3.390;2023-01-27T00:46:14;102752.03;;;4.57;84.93
23261;BME280;11799;47.740;-3.390;2023-01-27T00:48:40;102748.53;;;4.57;85.14
23261;BME280;11799;47.740;-3.390;2023-01-27T00:51:06;102747.69;;;4.56;85.27
23261;BME280;11799;47.740;-3.390;2023-01-27T00:53:31;102752.03;;;4.57;85.23
23261;BME280;11799;47.740;-3.390;2023-01-27T00:55:57;102748.50;;;4.58;85.41
23261;BME280;11799;47.740;-3.390;2023-01-27T00:58:27;102751.13;;;4.58;85.44
23261;BME280;11799;47.740;-3.390;2023-01-27T01:00:58;102761.59;;;4.58;85.42
23261;BME280;11799;47.740;-3.390;2023-01-27T01:03:25;102754.59;;;4.59;85.72
23261;BME280;11799;47.740;-3.390;2023-01-27T01:05:51;102765.94;;;4.59;85.43
23261;BME280;11799;47.740;-3.390;2023-01-27T01:08:17;102752.91;;;4.56;85.73
23261;BME280;11799;47.740;-3.390;2023-01-27T01:10:43;102753.78;;;4.57;85.86
23261;BME280;11799;47.740;-3.390;2023-01-27T01:13:09;102752.03;;;4.57;85.66
23261;BME280;11799;47.740;-3.390;2023-01-27T01:15:39;102744.16;;;4.57;85.90
23261;BME280;11799;47.740;-3.390;2023-01-27T01:18:07;102745.97;;;4.55;85.63
23261;BME280;11799;47.740;-3.390;2023-01-27T01:20:40;102738.97;;;4.56;85.73
23261;BME280;11799;47.740;-3.390;2023-01-27T01:23:06;102731.19;;;4.53;85.64
23261;BME280;11799;47.740;-3.390;2023-01-27T01:25:32;102738.16;;;4.54;86.05
23261;BME280;11799;47.740;-3.390;2023-01-27T01:27:58;102742.56;;;4.52;85.60
23261;BME280;11799;47.740;-3.390;2023-01-27T01:30:24;102748.63;;;4.52;86.10
23261;BME280;11799;47.740;-3.390;2023-01-27T01:32:55;102739.97;;;4.50;85.88
23261;BME280;11799;47.740;-3.390;2023-01-27T01:35:21;102743.47;;;4.49;86.14
23261;BME280;11799;47.740;-3.390;2023-01-27T01:37:47;102733.00;;;4.49;86.03
23261;BME280;11799;47.740;-3.390;2023-01-27T01:40:13;102727.81;;;4.48;86.25
23261;BME280;11799;47.740;-3.390;2023-01-27T01:45:47;102731.28;;;4.48;86.68
23261;BME280;11799;47.740;-3.390;2023-01-27T01:51:19;102733.97;;;4.45;86.71
23261;BME280;11799;47.740;-3.390;2023-01-27T01:53:59;102725.25;;;4.45;86.58
23261;BME280;11799;47.740;-3.390;2023-01-27T01:56:31;102729.63;;;4.44;86.93
23261;BME280;11799;47.740;-3.390;2023-01-27T01:59:03;102720.06;;;4.43;86.82
23261;BME280;11799;47.740;-3.390;2023-01-27T02:01:29;102726.19;;;4.42;86.98
23261;BME280;11799;47.740;-3.390;2023-01-27T02:03:58;102721.00;;;4.41;87.02
23261;BME280;11799;47.740;-3.390;2023-01-27T02:06:27;102729.72;;;4.40;87.03
23261;BME280;11799;47.740;-3.390;2023-01-27T02:08:56;102730.59;;;4.40;87.46
23261;BME280;11799;47.740;-3.390;2023-01-27T02:11:22;102732.31;;;4.41;87.18
23261;BME280;11799;47.740;-3.390;2023-01-27T02:13:47;102741.03;;;4.42;87.58
23261;BME280;11799;47.740;-3.390;2023-01-27T02:16:13;102734.94;;;4.41;87.30
23261;BME280;11799;47.740;-3.390;2023-01-27T02:18:40;102740.16;;;4.41;87.72
23261;BME280;11799;47.740;-3.390;2023-01-27T02:21:06;102738.47;;;4.39;87.39
23261;BME280;11799;47.740;-3.390;2023-01-27T02:24:00;102742.84;;;4.38;87.51
23261;BME280;11799;47.740;-3.390;2023-01-27T02:26:46;102738.47;;;4.39;87.77
23261;BME280;11799;47.740;-3.390;2023-01-27T02:29:14;102746.31;;;4.39;87.76
23261;BME280;11799;47.740;-3.390;2023-01-27T02:31:41;102757.72;;;4.36;87.83
23261;BME280;11799;47.740;-3.390;2023-01-27T02:34:10;102755.91;;;4.38;88.01
23261;BME280;11799;47.740;-3.390;2023-01-27T02:36:42;102752.44;;;4.38;88.11
23261;BME280;11799;47.740;-3.390;2023-01-27T02:39:13;102747.22;;;4.38;88.08
23261;BME280;11799;47.740;-3.390;2023-01-27T02:41:49;102746.28;;;4.40;88.02
23261;BME280;11799;47.740;-3.390;2023-01-27T02:44:15;102737.50;;;4.43;88.16
23261;BME280;11799;47.740;-3.390;2023-01-27T02:46:42;102724.41;;;4.44;88.18
23261;BME280;11799;47.740;-3.390;2023-01-27T02:49:08;102713.97;;;4.43;88.00
23261;BME280;11799;47.740;-3.390;2023-01-27T02:51:34;102713.13;;;4.41;87.78
23261;BME280;11799;47.740;-3.390;2023-01-27T02:54:00;102711.41;;;4.40;88.00
23261;BME280;11799;47.740;-3.390;2023-01-27T02:56:26;102713.16;;;4.39;87.77
23261;BME280;11799;47.740;-3.390;2023-01-27T02:58:54;102707.94;;;4.39;87.94
23261;BME280;11799;47.740;-3.390;2023-01-27T03:01:26;102714.06;;;4.38;87.71
23261;BME280;11799;47.740;-3.390;2023-01-27T03:03:52;102703.59;;;4.38;87.69
23261;BME280;11799;47.740;-3.390;2023-01-27T03:06:18;102707.09;;;4.39;87.66
23261;BME280;11799;47.740;-3.390;2023-01-27T03:08:44;102707.94;;;4.39;87.82
23261;BME280;11799;47.740;-3.390;2023-01-27T03:11:12;102706.16;;;4.41;88.10
23261;BME280;11799;47.740;-3.390;2023-01-27T03:13:38;102707.91;;;4.41;88.26
23261;BME280;11799;47.740;-3.390;2023-01-27T03:16:05;102701.81;;;4.40;88.17
23261;BME280;11799;47.740;-3.390;2023-01-27T03:18:50;102697.38;;;4.44;88.38
23261;BME280;11799;47.740;-3.390;2023-01-27T03:21:18;102693.03;;;4.43;88.24
23261;BME280;11799;47.740;-3.390;2023-01-27T03:23:45;102694.75;;;4.44;88.35
23261;BME280;11799;47.740;-3.390;2023-01-27T03:26:19;102679.94;;;4.44;88.47
23261;BME280;11799;47.740;-3.390;2023-01-27T03:28:48;102681.72;;;4.42;88.38
23261;BME280;11799;47.740;-3.390;2023-01-27T03:31:37;102682.69;;;4.38;88.20
23261;BME280;11799;47.740;-3.390;2023-01-27T03:34:03;102683.47;;;4.42;88.03
23261;BME280;11799;47.740;-3.390;2023-01-27T03:36:36;102686.13;;;4.40;87.95
23261;BME280;11799;47.740;-3.390;2023-01-27T03:39:21;102687.88;;;4.40;88.00
23261;BME280;11799;47.740;-3.390;2023-01-27T03:42:06;102689.66;;;4.38;88.01
23261;BME280;11799;47.740;-3.390;2023-01-27T03:44:50;102677.50;;;4.35;87.66
23261;BME280;11799;47.740;-3.390;2023-01-27T03:47:34;102685.41;;;4.34;87.55
23261;BME280;11799;47.740;-3.390;2023-01-27T03:50:00;102679.31;;;4.33;87.80
23261;BME280;11799;47.740;-3.390;2023-01-27T03:52:25;102676.75;;;4.30;87.57
23261;BME280;11799;47.740;-3.390;2023-01-27T03:54:51;102680.25;;;4.29;87.37
23261;BME280;11799;47.740;-3.390;2023-01-27T03:57:16;102672.41;;;4.29;87.65
23261;BME280;11799;47.740;-3.390;2023-01-27T03:59:42;102681.13;;;4.29;87.60
23261;BME280;11799;47.740;-3.390;2023-01-27T04:02:08;102673.31;;;4.28;87.49
23261;BME280;11799;47.740;-3.390;2023-01-27T04:04:52;102664.66;;;4.24;87.44
23261;BME280;11799;47.740;-3.390;2023-01-27T04:07:36;102668.16;;;4.25;87.61
23261;BME280;11799;47.740;-3.390;2023-01-27T04:10:03;102665.53;;;4.25;87.34
23261;BME280;11799;47.740;-3.390;2023-01-27T04:12:29;102670.78;;;4.23;87.37
23261;BME280;11799;47.740;-3.390;2023-01-27T04:14:55;102670.84;;;4.22;87.32
23261;BME280;11799;47.740;-3.390;2023-01-27T04:17:20;102671.69;;;4.22;87.61
23261;BME280;11799;47.740;-3.390;2023-01-27T04:19:46;102666.47;;;4.22;87.41
23261;BME280;11799;47.740;-3.390;2023-01-27T04:22:13;102674.31;;;4.22;87.43
23261;BME280;11799;47.740;-3.390;2023-01-27T04:24:40;102664.78;;;4.20;87.64
23261;BME280;11799;47.740;-3.390;2023-01-27T04:27:08;102654.34;;;4.18;87.38
23261;BME280;11799;47.740;-3.390;2023-01-27T04:29:36;102655.19;;;4.19;87.23
23261;BME280;11799;47.740;-3.390;2023-01-27T04:32:06;102662.19;;;4.18;87.21
23261;BME280;11799;47.740;-3.390;2023-01-27T04:34:34;102655.31;;;4.14;87.17
23261;BME280;11799;47.740;-3.390;2023-01-27T04:37:00;102648.34;;;4.13;87.25
23261;BME280;11799;47.740;-3.390;2023-01-27T04:39:27;102647.50;;;4.13;86.98
23261;BME280;11799;47.740;-3.390;2023-01-27T04:41:54;102644.88;;;4.13;87.30
23261;BME280;11799;47.740;-3.390;2023-01-27T04:44:20;102641.38;;;4.14;87.20
23261;BME280;11799;47.740;-3.390;2023-01-27T04:46:46;102638.81;;;4.11;87.36
23261;BME280;11799;47.740;-3.390;2023-01-27T04:49:12;102635.41;;;4.07;87.28
23261;BME280;11799;47.740;-3.390;2023-01-27T04:51:38;102639.78;;;4.07;86.97
23261;BME280;11799;47.740;-3.390;2023-01-27T04:54:04;102636.41;;;4.03;86.84
23261;BME280;11799;47.740;-3.390;2023-01-27T04:56:34;102652.94;;;4.04;86.84
23261;BME280;11799;47.740;-3.390;2023-01-27T04:59:05;102636.41;;;4.03;87.04
23261;BME280;11799;47.740;-3.390;2023-01-27T05:01:31;102642.53;;;4.02;87.04
23261;BME280;11799;47.740;-3.390;2023-01-27T05:03:56;102646.03;;;4.01;86.88
23261;BME280;11799;47.740;-3.390;2023-01-27T05:06:23;102648.66;;;4.01;86.97
23261;BME280;11799;47.740;-3.390;2023-01-27T05:08:49;102649.53;;;4.00;86.83
23261;BME280;11799;47.740;-3.390;2023-01-27T05:11:15;102654.00;;;3.95;86.74
23261;BME280;11799;47.740;-3.390;2023-01-27T05:13:41;102655.72;;;3.96;86.62
23261;BME280;11799;47.740;-3.390;2023-01-27T05:16:10;102651.38;;;3.95;86.82
23261;BME280;11799;47.740;-3.390;2023-01-27T05:18:36;102647.94;;;3.93;86.39
23261;BME280;11799;47.740;-3.390;2023-01-27T05:21:03;102650.56;;;3.93;86.68
23261;BME280;11799;47.740;-3.390;2023-01-27T05:23:29;102654.94;;;3.92;86.63
23261;BME280;11799;47.740;-3.390;2023-01-27T05:28:34;102648.00;;;3.90;86.56
23261;BME280;11799;47.740;-3.390;2023-01-27T05:31:29;102647.13;;;3.91;86.67
23261;BME280;11799;47.740;-3.390;2023-01-27T05:33:59;102653.16;;;3.93;86.55
23261;BME280;11799;47.740;-3.390;2023-01-27T05:36:25;102654.03;;;3.93;87.01
23261;BME280;11799;47.740;-3.390;2023-01-27T05:38:52;102649.63;;;3.95;86.71
23261;BME280;11799;47.740;-3.390;2023-01-27T05:41:19;102645.25;;;3.96;86.49
23261;BME280;11799;47.740;-3.390;2023-01-27T05:43:46;102648.72;;;3.98;86.86
23261;BME280;11799;47.740;-3.390;2023-01-27T05:46:14;102648.69;;;4.00;86.82
23261;BME280;11799;47.740;-3.390;2023-01-27T05:48:48;102653.03;;;3.99;87.05
23261;BME280;11799;47.740;-3.390;2023-01-27T05:51:15;102639.09;;;4.00;87.20
23261;BME280;11799;47.740;-3.390;2023-01-27T05:53:42;102646.97;;;3.98;86.85
23261;BME280;11799;47.740;-3.390;2023-01-27T05:56:10;102653.00;;;4.01;87.20
23261;BME280;11799;47.740;-3.390;2023-01-27T05:58:37;102662.59;;;4.00;87.14
23261;BME280;11799;47.740;-3.390;2023-01-27T06:01:13;102666.09;;;4.01;86.67
23261;BME280;11799;47.740;-3.390;2023-01-27T06:03:40;102662.66;;;3.98;86.88
23261;BME280;11799;47.740;-3.390;2023-01-27T06:06:06;102662.66;;;3.98;86.72
23261;BME280;11799;47.740;-3.390;2023-01-27T06:08:32;102665.28;;;3.97;86.33
23261;BME280;11799;47.740;-3.390;2023-01-27T06:10:58;102671.41;;;3.96;86.51
23261;BME280;11799;47.740;-3.390;2023-01-27T06:13:24;102668.78;;;3.96;86.72
23261;BME280;11799;47.740;-3.390;2023-01-27T06:15:50;102678.38;;;3.95;86.62
23261;BME280;11799;47.740;-3.390;2023-01-27T06:18:17;102669.69;;;3.95;86.49
23261;BME280;11799;47.740;-3.390;2023-01-27T06:20:43;102669.69;;;3.95;86.38
23261;BME280;11799;47.740;-3.390;2023-01-27T06:23:10;102670.59;;;3.92;86.43
23261;BME280;11799;47.740;-3.390;2023-01-27T06:25:41;102675.88;;;3.91;86.51
23261;BME280;11799;47.740;-3.390;2023-01-27T06:28:08;102683.78;;;3.88;85.92
23261;BME280;11799;47.740;-3.390;2023-01-27T06:30:35;102680.31;;;3.86;86.08
23261;BME280;11799;47.740;-3.390;2023-01-27T06:33:02;102681.28;;;3.82;85.98
23261;BME280;11799;47.740;-3.390;2023-01-27T06:35:28;102686.50;;;3.82;86.09
23261;BME280;11799;47.740;-3.390;2023-01-27T06:37:56;102687.50;;;3.76;86.01
23261;BME280;11799;47.740;-3.390;2023-01-27T06:40:26;102675.38;;;3.72;85.67
23261;BME280;11799;47.740;-3.390;2023-01-27T06:42:53;102687.59;;;3.70;86.03
23261;BME280;11799;47.740;-3.390;2023-01-27T06:45:19;102686.72;;;3.71;85.74
23261;BME280;11799;47.740;-3.390;2023-01-27T06:47:44;102686.78;;;3.68;85.80
23261;BME280;11799;47.740;-3.390;2023-01-27T06:50:10;102690.31;;;3.65;86.06
23261;BME280;11799;47.740;-3.390;2023-01-27T06:52:37;102693.88;;;3.61;85.74
23261;BME280;11799;47.740;-3.390;2023-01-27T06:55:03;102695.56;;;3.64;85.70
23261;BME280;11799;47.740;-3.390;2023-01-27T06:57:29;102698.19;;;3.62;86.23
23261;BME280;11799;47.740;-3.390;2023-01-27T06:59:55;102696.44;;;3.63;86.21
23261;BME280;11799;47.740;-3.390;2023-01-27T07:02:21;102691.25;;;3.61;86.14
23261;BME280;11799;47.740;-3.390;2023-01-27T07:04:46;102691.22;;;3.63;86.44
23261;BME280;11799;47.740;-3.390;2023-01-27T07:07:12;102693.84;;;3.63;86.25
23261;BME280;11799;47.740;-3.390;2023-01-27T07:09:37;102691.28;;;3.60;86.67
23261;BME280;11799;47.740;-3.390;2023-01-27T07:12:03;102688.66;;;3.60;86.38
23261;BME280;11799;47.740;-3.390;2023-01-27T07:14:29;102701.72;;;3.60;86.01
23261;BME280;11799;47.740;-3.390;2023-01-27T07:16:54;102696.50;;;3.60;85.84
23261;BME280;11799;47.740;-3.390;2023-01-27T07:19:20;102701.72;;;3.60;86.03
23261;BME280;11799;47.740;-3.390;2023-01-27T07:21:45;102704.41;;;3.57;85.68
23261;BME280;11799;47.740;-3.390;2023-01-27T07:24:11;102709.69;;;3.54;85.52
23261;BME280;11799;47.740;-3.390;2023-01-27T07:26:36;102700.13;;;3.53;85.56
23261;BME280;11799;47.740;-3.390;2023-01-27T07:29:02;102701.03;;;3.50;85.86
23261;BME280;11799;47.740;-3.390;2023-01-27T07:31:27;102703.66;;;3.50;85.20
23261;BME280;11799;47.740;-3.390;2023-01-27T07:33:53;102715.00;;;3.49;85.20
23261;BME280;11799;47.740;-3.390;2023-01-27T07:36:19;102708.91;;;3.49;85.82
23261;BME280;11799;47.740;-3.390;2023-01-27T07:38:48;102715.00;;;3.48;85.48
23261;BME280;11799;47.740;-3.390;2023-01-27T07:41:13;102714.16;;;3.47;85.66
23261;BME280;11799;47.740;-3.390;2023-01-27T07:43:39;102712.47;;;3.46;85.44
23261;BME280;11799;47.740;-3.390;2023-01-27T07:46:06;102707.25;;;3.46;85.85
23261;BME280;11799;47.740;-3.390;2023-01-27T07:48:32;102705.47;;;3.47;85.39
23261;BME280;11799;47.740;-3.390;2023-01-27T07:50:57;102708.94;;;3.47;86.05
23261;BME280;11799;47.740;-3.390;2023-01-27T07:53:23;102714.13;;;3.49;85.62
23261;BME280;11799;47.740;-3.390;2023-01-27T07:55:49;102715.00;;;3.49;86.01
23261;BME280;11799;47.740;-3.390;2023-01-27T07:58:15;102719.31;;;3.50;86.00
23261;BME280;11799;47.740;-3.390;2023-01-27T08:00:41;102709.69;;;3.54;86.00
23261;BME280;11799;47.740;-3.390;2023-01-27T08:03:19;102716.59;;;3.56;86.22
23261;BME280;11799;47.740;-3.390;2023-01-27T08:05:45;102719.16;;;3.59;86.13
23261;BME280;11799;47.740;-3.390;2023-01-27T08:08:10;102726.91;;;3.64;86.43
23261;BME280;11799;47.740;-3.390;2023-01-27T08:10:36;102724.28;;;3.65;86.24
23261;BME280;11799;47.740;-3.390;2023-01-27T08:13:02;102714.63;;;3.69;86.40
23261;BME280;11799;47.740;-3.390;2023-01-27T08:15:27;102720.66;;;3.73;86.58
23261;BME280;11799;47.740;-3.390;2023-01-27T08:17:57;102723.22;;;3.76;86.89
23261;BME280;11799;47.740;-3.390;2023-01-27T08:20:25;102729.25;;;3.79;86.41
23261;BME280;11799;47.740;-3.390;2023-01-27T08:22:51;102721.31;;;3.84;86.45
23261;BME280;11799;47.740;-3.390;2023-01-27T08:25:17;102717.78;;;3.86;86.28
23261;BME280;11799;47.740;-3.390;2023-01-27T08:27:43;102722.94;;;3.89;86.29
23261;BME280;11799;47.740;-3.390;2023-01-27T08:30:09;102728.13;;;3.92;86.26
23261;BME280;11799;47.740;-3.390;2023-01-27T08:32:35;102725.44;;;3.95;86.16
23261;BME280;11799;47.740;-3.390;2023-01-27T08:35:01;102728.84;;;3.99;86.23
23261;BME280;11799;47.740;-3.390;2023-01-27T08:37:26;102732.25;;;4.04;86.15
23261;BME280;11799;47.740;-3.390;2023-01-27T08:39:52;102728.63;;;4.10;86.23
23261;BME280;11799;47.740;-3.390;2023-01-27T08:42:18;102733.66;;;4.19;86.08
23261;BME280;11799;47.740;-3.390;2023-01-27T08:44:43;102730.06;;;4.24;86.37
23261;BME280;11799;47.740;-3.390;2023-01-27T08:47:09;102730.06;;;4.24;85.87
23261;BME280;11799;47.740;-3.390;2023-01-27T08:49:34;102728.22;;;4.28;85.36
23261;BME280;11799;47.740;-3.390;2023-01-27T08:52:00;102729.81;;;4.35;85.16
23261;BME280;11799;47.740;-3.390;2023-01-27T08:54:25;102725.91;;;4.54;85.18
23261;BME280;11799;47.740;-3.390;2023-01-27T08:56:51;102735.28;;;5.02;85.00
23261;BME280;11799;47.740;-3.390;2023-01-27T08:59:17;102727.50;;;5.32;84.75
23261;BME280;11799;47.740;-3.390;2023-01-27T09:01:42;102730.78;;;5.41;83.90
23261;BME280;11799;47.740;-3.390;2023-01-27T09:04:08;102728.97;;;5.43;83.42
23261;BME280;11799;47.740;-3.390;2023-01-27T09:06:33;102728.19;;;5.39;82.63
23261;BME280;11799;47.740;-3.390;2023-01-27T09:08:59;102735.00;;;5.46;82.52
23261;BME280;11799;47.740;-3.390;2023-01-27T09:11:41;102732.25;;;5.51;82.07
23261;BME280;11799;47.740;-3.390;2023-01-27T09:14:08;102731.25;;;5.56;81.78
23261;BME280;11799;47.740;-3.390;2023-01-27T09:16:33;102725.88;;;5.61;81.69
23261;BME280;11799;47.740;-3.390;2023-01-27T09:18:59;102731.00;;;5.66;81.72
23261;BME280;11799;47.740;-3.390;2023-01-27T09:21:25;102733.50;;;5.70;81.52
23261;BME280;11799;47.740;-3.390;2023-01-27T09:23:51;102725.56;;;5.73;81.13
23261;BME280;11799;47.740;-3.390;2023-01-27T09:26:17;102730.75;;;5.75;80.56
23261;BME280;11799;47.740;-3.390;2023-01-27T09:28:42;102742.16;;;5.74;80.53
23261;BME280;11799;47.740;-3.390;2023-01-27T09:31:08;102741.25;;;5.75;80.61
23261;BME280;11799;47.740;-3.390;2023-01-27T09:33:34;102740.22;;;5.79;80.57
23261;BME280;11799;47.740;-3.390;2023-01-27T09:36:10;102737.53;;;5.82;80.48
23261;BME280;11799;47.740;-3.390;2023-01-27T09:38:54;102741.81;;;5.84;80.46
23261;BME280;11799;47.740;-3.390;2023-01-27T09:46:57;102746.03;;;5.91;79.95
23261;BME280;11799;47.740;-3.390;2023-01-27T10:01:38;102742.59;;;6.20;77.33
23261;BME280;11799;47.740;-3.390;2023-01-27T10:07:02;102745.22;;;6.20;76.97
23261;BME280;11799;47.740;-3.390;2023-01-27T10:17:41;102745.88;;;6.56;76.29
23261;BME280;11799;47.740;-3.390;2023-01-27T10:25:39;102752.22;;;6.77;73.77
23261;BME280;11799;47.740;-3.390;2023-01-27T10:28:14;102746.94;;;6.79;72.96
23261;BME280;11799;47.740;-3.390;2023-01-27T10:30:50;102743.41;;;6.80;73.62
23261;BME280;11799;47.740;-3.390;2023-01-27T10:33:28;102748.78;;;6.75;72.65
23261;BME280;11799;47.740;-3.390;2023-01-27T10:36:25;102753.22;;;6.73;72.48
23261;BME280;11799;47.740;-3.390;2023-01-27T10:39:05;102750.84;;;6.66;72.03
23261;BME280;11799;47.740;-3.390;2023-01-27T10:41:58;102751.78;;;6.63;73.43
23261;BME280;11799;47.740;-3.390;2023-01-27T10:44:52;102752.69;;;6.62;72.16
23261;BME280;11799;47.740;-3.390;2023-01-27T10:47:29;102739.72;;;6.57;73.11
23261;BME280;11799;47.740;-3.390;2023-01-27T10:50:02;102744.09;;;6.57;72.48
23261;BME280;11799;47.740;-3.390;2023-01-27T10:52:44;102744.09;;;6.57;72.01
23261;BME280;11799;47.740;-3.390;2023-01-27T10:55:28;102752.78;;;6.59;72.91
23261;BME280;11799;47.740;-3.390;2023-01-27T10:58:28;102737.91;;;6.59;72.62
23261;BME280;11799;47.740;-3.390;2023-01-27T11:00:58;102729.97;;;6.61;72.43
23261;BME280;11799;47.740;-3.390;2023-01-27T11:03:28;102729.78;;;6.67;72.01
23261;BME280;11799;47.740;-3.390;2023-01-27T11:05:59;102729.56;;;6.75;71.54
23261;BME280;11799;47.740;-3.390;2023-01-27T11:08:31;102725.72;;;6.85;72.18
23261;BME280;11799;47.740;-3.390;2023-01-27T11:11:02;102713.31;;;6.90;72.62
23261;BME280;11799;47.740;-3.390;2023-01-27T11:13:48;102714.66;;;7.02;71.90
23261;BME280;11799;47.740;-3.390;2023-01-27T11:16:18;102713.53;;;7.09;70.86
23261;BME280;11799;47.740;-3.390;2023-01-27T11:18:45;102706.16;;;7.20;70.82
23261;BME280;11799;47.740;-3.390;2023-01-27T11:21:21;102705.84;;;7.29;69.97
23261;BME280;11799;47.740;-3.390;2023-01-27T11:23:50;102705.75;;;7.32;68.57
23261;BME280;11799;47.740;-3.390;2023-01-27T11:26:39;102710.09;;;7.33;68.63
23261;BME280;11799;47.740;-3.390;2023-01-27T11:32:10;102713.63;;;7.32;68.05
23261;BME280;11799;47.740;-3.390;2023-01-27T11:35:03;102699.59;;;7.33;69.04
23261;BME280;11799;47.740;-3.390;2023-01-27T11:37:37;102703.03;;;7.35;69.20
23261;BME280;11799;47.740;-3.390;2023-01-27T11:42:39;102700.66;;;7.27;70.38
23261;BME280;11799;47.740;-3.390;2023-01-27T11:45:05;102699.16;;;7.20;71.03
23261;BME280;11799;47.740;-3.390;2023-01-27T11:47:37;102701.88;;;7.17;70.04
23261;BME280;11799;47.740;-3.390;2023-01-27T11:50:06;102698.50;;;7.14;70.97
23261;BME280;11799;47.740;-3.390;2023-01-27T11:52:32;102690.66;;;7.12;72.60
23261;BME280;11799;47.740;-3.390;2023-01-27T11:55:15;102682.66;;;7.15;72.45
23261;BME280;11799;47.740;-3.390;2023-01-27T11:57:50;102685.25;;;7.17;71.23
23261;BME280;11799;47.740;-3.390;2023-01-27T12:00:19;102677.41;;;7.15;71.06
23261;BME280;11799;47.740;-3.390;2023-01-27T12:02:50;102669.59;;;7.14;70.30
23261;BME280;11799;47.740;-3.390;2023-01-27T12:05:26;102678.38;;;7.13;69.21
23261;BME280;11799;47.740;-3.390;2023-01-27T12:07:59;102675.66;;;7.16;69.10
23261;BME280;11799;47.740;-3.390;2023-01-27T12:13:23;102669.31;;;7.21;69.25
23261;BME280;11799;47.740;-3.390;2023-01-27T12:15:57;102668.38;;;7.24;68.95
23261;BME280;11799;47.740;-3.390;2023-01-27T12:18:24;102657.03;;;7.22;69.76
23261;BME280;11799;47.740;-3.390;2023-01-27T12:21:03;102654.09;;;7.31;67.57
23261;BME280;11799;47.740;-3.390;2023-01-27T12:23:36;102647.88;;;7.34;67.32
23261;BME280;11799;47.740;-3.390;2023-01-27T12:26:06;102643.44;;;7.36;68.35
23261;BME280;11799;47.740;-3.390;2023-01-27T12:31:09;102653.69;;;7.43;66.56
23261;BME280;11799;47.740;-3.390;2023-01-27T12:33:37;102650.13;;;7.44;65.87
23261;BME280;11799;47.740;-3.390;2023-01-27T12:38:48;102643.38;;;7.37;66.50
23261;BME280;11799;47.740;-3.390;2023-01-27T12:41:21;102645.25;;;7.34;66.73
23261;BME280;11799;47.740;-3.390;2023-01-27T12:43:49;102646.13;;;7.34;67.04
23261;BME280;11799;47.740;-3.390;2023-01-27T12:48:52;102635.66;;;7.33;66.75
23261;BME280;11799;47.740;-3.390;2023-01-27T12:51:21;102631.16;;;7.36;66.71
23261;BME280;11799;47.740;-3.390;2023-01-27T12:53:49;102631.19;;;7.35;67.53
23261;BME280;11799;47.740;-3.390;2023-01-27T12:56:17;102632.00;;;7.37;67.22
23261;BME280;11799;47.740;-3.390;2023-01-27T13:03:47;102617.38;;;7.29;66.30
23261;BME280;11799;47.740;-3.390;2023-01-27T13:06:15;102616.44;;;7.31;67.61
23261;BME280;11799;47.740;-3.390;2023-01-27T13:08:41;102611.25;;;7.29;68.07
23261;BME280;11799;47.740;-3.390;2023-01-27T13:11:07;102612.06;;;7.31;65.82
23261;BME280;11799;47.740;-3.390;2023-01-27T13:13:33;102612.16;;;7.28;65.75
23261;BME280;11799;47.740;-3.390;2023-01-27T13:16:14;102607.88;;;7.25;66.06
23261;BME280;11799;47.740;-3.390;2023-01-27T13:18:41;102606.03;;;7.27;65.59
23261;BME280;11799;47.740;-3.390;2023-01-27T13:21:17;102598.84;;;7.33;67.20
23261;BME280;11799;47.740;-3.390;2023-01-27T13:23:46;102591.63;;;7.39;66.40
23261;BME280;11799;47.740;-3.390;2023-01-27T13:26:24;102587.22;;;7.40;65.25
23261;BME280;11799;47.740;-3.390;2023-01-27T13:33:59;102569.31;;;7.26;64.34
23261;BME280;11799;47.740;-3.390;2023-01-27T13:36:43;102566.63;;;7.27;65.11
23261;BME280;11799;47.740;-3.390;2023-01-27T13:39:42;102572.75;;;7.28;64.32
23261;BME280;11799;47.740;-3.390;2023-01-27T13:42:35;102577.72;;;7.36;64.55
23261;BME280;11799;47.740;-3.390;2023-01-27T13:48:19;102577.78;;;7.34;64.11
23261;BME280;11799;47.740;-3.390;2023-01-27T13:50:37;102565.66;;;7.30;63.99
23261;BME280;11799;47.740;-3.390;2023-01-27T13:53:04;102574.47;;;7.29;63.62
23261;BME280;11799;47.740;-3.390;2023-01-27T13:55:53;102570.97;;;7.28;63.77
23261;BME280;11799;47.740;-3.390;2023-01-27T14:01:12;102556.91;;;7.29;65.18
23261;BME280;11799;47.740;-3.390;2023-01-27T14:06:32;102550.41;;;7.40;63.42
23261;BME280;11799;47.740;-3.390;2023-01-27T14:09:27;102553.00;;;7.41;65.20
23261;BME280;11799;47.740;-3.390;2023-01-27T14:12:18;102558.13;;;7.44;64.01
23261;BME280;11799;47.740;-3.390;2023-01-27T14:15:17;102556.47;;;7.42;64.85
23261;BME280;11799;47.740;-3.390;2023-01-27T14:20:44;102565.84;;;7.49;64.84
23261;BME280;11799;47.740;-3.390;2023-01-27T14:28:33;102571.75;;;7.54;65.15
23261;BME280;11799;47.740;-3.390;2023-01-27T14:31:08;102573.41;;;7.56;65.73